Coosada, Alabama
Current Conditions -  °F | °C
As of 10:58 AM on Friday 24 Oct 2014 (Local Time) from KMXF Reporting Station
Few Clouds Few Clouds  
Wind Chill: 66°   Ceiling: Unl
Heat Index: 66°   Visibility: 10mi
Dew Point: 49°   Wind: 0mph
Humidity: 53%   Direction: NA
Pressure: 30.08"   Gusts: NA
Location:  32.5°N, 86.33°W
Report Text: KMXF 241558Z AUTO 00000KT 10SM FEW200 19/09 A3008 RMK AO2 SLP188 T01910094
Loading
Personal Weather Stations






























Interactive Weather Map
Tropical Storm Tracking
New forecast layout! Learn more

10-Day Weather Forecast

Advertisements
Track Severe Weather on mobile